Time;durP1;ratioP1;P1;durP2;ratioP2;P2;SDS_P1;SDS_P2;PMS_P1;PMS_P2;Temp;Humidity;BMP_temperature;BMP_pressure;BME280_temperature;BME280_humidity;BME280_pressure;Samples;Min_cycle;Max_cycle;Signal;HPM_P1;HPM_P2
2023/06/05 00:02:02;;;;;;;1.10;1.10;;;22.30;63.00;;;;;;5086014;28;43689;-70
2023/06/05 00:04:30;;;;;;;1.20;1.20;;;22.40;62.70;;;;;;5089671;27;44031;-71
2023/06/05 00:06:58;;;;;;;1.23;1.23;;;22.40;62.60;;;;;;5089688;27;43501;-70
2023/06/05 00:09:26;;;;;;;1.13;1.13;;;22.40;62.50;;;;;;5089766;27;43494;-70
2023/06/05 00:11:54;;;;;;;1.30;1.30;;;22.40;62.70;;;;;;5089174;27;43871;-70
2023/06/05 00:14:24;;;;;;;1.20;1.20;;;22.30;63.20;;;;;;5088589;28;43380;-70
2023/06/05 00:16:52;;;;;;;1.20;1.20;;;22.30;63.30;;;;;;5086238;28;43956;-70
2023/06/05 00:19:20;;;;;;;1.00;1.00;;;22.20;63.20;;;;;;5088331;28;43417;-70
2023/06/05 00:21:50;;;;;;;1.10;1.10;;;22.20;63.30;;;;;;5091425;27;43836;-75
2023/06/05 00:24:18;;;;;;;1.23;1.23;;;22.20;63.20;;;;;;5085973;28;44753;-70
2023/06/05 00:26:46;;;;;;;1.20;1.20;;;22.10;63.60;;;;;;5088347;27;43516;-70
2023/06/05 00:29:15;;;;;;;1.20;1.20;;;22.10;63.60;;;;;;5087419;28;43634;-70
2023/06/05 00:31:45;;;;;;;1.10;1.10;;;22.10;63.70;;;;;;5089186;27;44035;-70
2023/06/05 00:34:14;;;;;;;1.10;1.10;;;22.10;63.50;;;;;;5088931;27;43465;-69
2023/06/05 00:36:42;;;;;;;1.17;1.17;;;22.10;63.40;;;;;;5088609;28;43494;-69
2023/06/05 00:39:13;;;;;;;1.23;1.23;;;22.10;63.80;;;;;;5087430;27;43463;-70
2023/06/05 00:41:41;;;;;;;1.10;1.10;;;22.10;63.90;;;;;;5086977;27;45833;-70
2023/06/05 00:44:10;;;;;;;0.97;0.97;;;22.10;63.80;;;;;;5088926;27;43528;-69
2023/06/05 00:46:39;;;;;;;1.10;1.10;;;22.10;63.50;;;;;;5089136;27;43376;-70
2023/06/05 00:49:08;;;;;;;1.13;1.13;;;22.00;63.60;;;;;;5088972;27;43769;-70
2023/06/05 00:51:36;;;;;;;1.00;1.00;;;22.00;63.90;;;;;;5087401;28;43603;-70
2023/06/05 00:54:05;;;;;;;1.20;1.20;;;22.10;63.80;;;;;;5086720;28;44662;-70
2023/06/05 00:56:35;;;;;;;1.30;1.30;;;22.20;63.50;;;;;;5087501;27;44044;-70
2023/06/05 00:59:03;;;;;;;1.07;1.07;;;22.40;63.10;;;;;;5089307;27;43442;-70
2023/06/05 01:01:32;;;;;;;1.00;1.00;;;22.50;62.80;;;;;;5089116;28;43654;-73
2023/06/05 01:04:00;;;;;;;1.03;1.03;;;22.50;62.60;;;;;;5084316;27;45037;-72
2023/06/05 01:06:31;;;;;;;1.03;1.03;;;22.50;62.60;;;;;;5099385;27;43346;-73
2023/06/05 01:09:05;;;;;;;1.13;1.13;;;22.40;62.80;;;;;;5089414;27;43549;-73
2023/06/05 01:11:38;;;;;;;1.20;1.20;;;22.30;63.20;;;;;;5088408;27;44087;-74
2023/06/05 01:14:09;;;;;;;1.00;1.00;;;22.30;63.20;;;;;;5088237;27;44014;-73
2023/06/05 01:16:38;;;;;;;1.00;1.00;;;22.30;63.30;;;;;;5088713;27;43294;-73
2023/06/05 01:19:06;;;;;;;0.97;0.97;;;22.20;63.20;;;;;;5085615;28;43947;-71
2023/06/05 01:21:36;;;;;;;1.00;1.00;;;22.20;63.20;;;;;;5086765;28;45498;-73
2023/06/05 01:24:06;;;;;;;1.10;1.10;;;22.10;63.60;;;;;;5093592;27;44411;-72
2023/06/05 01:26:37;;;;;;;0.90;0.90;;;22.10;63.50;;;;;;5087693;27;43567;-72
2023/06/05 01:29:06;;;;;;;1.13;1.13;;;22.10;63.70;;;;;;5088357;28;43553;-74
2023/06/05 01:31:36;;;;;;;1.10;1.10;;;22.10;63.40;;;;;;5086559;28;45766;-74
2023/06/05 01:34:07;;;;;;;1.27;1.27;;;22.10;63.90;;;;;;5088370;27;43457;-74
2023/06/05 01:36:37;;;;;;;0.93;0.93;;;22.10;63.80;;;;;;5087611;28;43437;-75
2023/06/05 01:39:08;;;;;;;1.10;1.10;;;22.20;63.60;;;;;;5079871;28;43896;-74
2023/06/05 01:41:36;;;;;;;1.00;1.00;;;22.30;63.20;;;;;;5084141;28;43607;-75
2023/06/05 01:44:05;;;;;;;1.07;1.07;;;22.40;62.90;;;;;;5080076;28;44510;-74
2023/06/05 01:46:33;;;;;;;1.17;1.17;;;22.40;62.80;;;;;;5090630;27;43473;-74
2023/06/05 01:49:02;;;;;;;1.10;1.10;;;22.40;62.70;;;;;;5082301;28;43443;-74
2023/06/05 01:51:30;;;;;;;1.07;1.07;;;22.40;62.80;;;;;;5085112;28;45729;-74
2023/06/05 01:53:58;;;;;;;1.13;1.13;;;22.30;63.30;;;;;;5088102;27;43413;-73
2023/06/05 01:56:30;;;;;;;1.00;1.00;;;22.30;63.40;;;;;;5082287;28;43409;-73
2023/06/05 01:58:58;;;;;;;1.00;1.00;;;22.20;63.30;;;;;;5081355;28;44129;-74
2023/06/05 02:01:28;;;;;;;1.10;1.10;;;22.20;63.40;;;;;;5086643;27;45416;-73
2023/06/05 02:03:57;;;;;;;1.17;1.17;;;22.20;63.30;;;;;;5086607;28;45035;-74
2023/06/05 02:06:26;;;;;;;1.00;1.00;;;22.10;63.70;;;;;;5086612;28;43472;-74
2023/06/05 02:08:54;;;;;;;1.00;1.00;;;22.10;63.70;;;;;;5087051;28;43442;-74
2023/06/05 02:11:22;;;;;;;1.40;1.20;;;22.10;63.70;;;;;;5087892;28;43930;-74
2023/06/05 02:13:52;;;;;;;0.97;0.97;;;22.10;63.60;;;;;;5086161;28;44383;-74
2023/06/05 02:16:25;;;;;;;1.10;1.10;;;22.10;63.60;;;;;;5085955;28;43480;-74
2023/06/05 02:18:56;;;;;;;1.10;1.10;;;22.10;64.00;;;;;;5087595;27;43581;-74
2023/06/05 02:21:24;;;;;;;1.03;1.03;;;22.10;63.90;;;;;;5087594;27;43870;-74
2023/06/05 02:23:53;;;;;;;1.00;1.00;;;22.10;63.90;;;;;;5086131;27;43446;-74
2023/06/05 02:26:21;;;;;;;1.00;1.00;;;22.00;63.50;;;;;;5085837;28;43406;-74
2023/06/05 02:28:50;;;;;;;0.97;0.97;;;22.00;63.80;;;;;;5086454;27;44011;-74
2023/06/05 02:31:19;;;;;;;0.90;0.90;;;22.00;63.90;;;;;;5086508;27;45678;-74
2023/06/05 02:33:48;;;;;;;1.00;1.00;;;22.10;63.80;;;;;;5086403;27;44727;-73
2023/06/05 02:36:17;;;;;;;0.93;0.93;;;22.20;63.40;;;;;;5085784;28;43449;-74
2023/06/05 02:38:45;;;;;;;0.90;0.90;;;22.40;63.00;;;;;;5085786;28;44055;-72
2023/06/05 02:41:13;;;;;;;0.90;0.90;;;22.50;62.80;;;;;;5085286;28;46023;-74
2023/06/05 02:43:42;;;;;;;1.20;1.20;;;22.50;62.80;;;;;;5085745;28;44831;-73
2023/06/05 02:46:10;;;;;;;0.90;0.90;;;22.40;62.70;;;;;;5085053;28;43437;-74
2023/06/05 02:48:40;;;;;;;1.00;1.00;;;22.40;62.90;;;;;;5085749;28;44054;-73
2023/06/05 02:51:10;;;;;;;1.03;1.03;;;22.30;63.30;;;;;;5085837;28;46122;-74
2023/06/05 02:53:40;;;;;;;1.00;1.00;;;22.30;63.20;;;;;;5085534;28;45093;-74
2023/06/05 02:56:08;;;;;;;1.00;1.00;;;22.20;63.30;;;;;;5085769;28;43391;-73
2023/06/05 02:58:37;;;;;;;1.03;1.03;;;22.20;63.30;;;;;;5086310;28;43526;-74
2023/06/05 03:01:06;;;;;;;0.90;0.90;;;22.10;63.50;;;;;;5085791;28;45734;-73
2023/06/05 03:03:42;;;;;;;1.10;1.10;;;22.10;63.70;;;;;;5086882;28;43453;-73
2023/06/05 03:06:11;;;;;;;1.10;1.10;;;22.10;63.70;;;;;;5089429;28;43374;-73
2023/06/05 03:08:44;;;;;;;0.90;0.90;;;22.10;63.70;;;;;;5089458;27;43828;-73
2023/06/05 03:11:17;;;;;;;1.10;1.10;;;22.10;63.30;;;;;;5089153;28;43949;-73
2023/06/05 03:13:45;;;;;;;1.03;1.03;;;22.00;63.80;;;;;;5089109;27;44967;-72
2023/06/05 03:16:13;;;;;;;0.87;0.87;;;22.10;63.90;;;;;;5089658;27;43795;-73
2023/06/05 03:18:49;;;;;;;1.10;1.10;;;22.20;63.70;;;;;;5089789;28;43600;-73
2023/06/05 03:21:17;;;;;;;0.90;0.90;;;22.30;63.10;;;;;;5089185;28;46001;-73
2023/06/05 03:23:45;;;;;;;1.00;1.00;;;22.40;63.00;;;;;;5087640;27;44527;-73
2023/06/05 03:26:15;;;;;;;1.10;1.10;;;22.40;63.10;;;;;;5088368;28;43494;-73
2023/06/05 03:28:44;;;;;;;0.90;0.90;;;22.40;63.00;;;;;;5088815;28;43439;-73
2023/06/05 03:31:13;;;;;;;1.00;1.00;;;22.30;63.10;;;;;;5090273;28;43626;-73
2023/06/05 03:33:44;;;;;;;0.90;0.90;;;22.20;63.40;;;;;;5088841;28;44067;-74
2023/06/05 03:36:17;;;;;;;1.00;1.00;;;22.20;63.50;;;;;;5088502;28;43494;-73
2023/06/05 03:38:46;;;;;;;1.00;1.00;;;22.20;63.50;;;;;;5082316;28;43399;-73
2023/06/05 03:41:14;;;;;;;1.00;1.00;;;22.20;63.40;;;;;;5082429;28;46030;-73
2023/06/05 03:43:43;;;;;;;1.00;1.00;;;22.10;63.20;;;;;;5084899;27;44675;-73
2023/06/05 03:46:18;;;;;;;1.37;1.37;;;22.10;63.80;;;;;;5088865;28;43406;-72
2023/06/05 03:48:49;;;;;;;1.83;1.70;;;22.10;63.70;;;;;;5083875;27;43446;-73
2023/06/05 03:51:19;;;;;;;2.10;2.00;;;22.10;63.70;;;;;;5088621;28;45926;-73
2023/06/05 03:53:54;;;;;;;5.53;2.83;;;22.10;63.40;;;;;;5088434;27;44031;-73
2023/06/05 03:56:23;;;;;;;9.13;3.90;;;22.10;63.80;;;;;;5088455;28;43480;-73
2023/06/05 03:58:52;;;;;;;10.43;4.20;;;22.00;63.60;;;;;;5088872;28;43474;-73
2023/06/05 04:01:20;;;;;;;6.23;3.67;;;22.10;63.50;;;;;;5085902;28;46087;-73
2023/06/05 04:03:48;;;;;;;6.87;3.80;;;22.20;63.00;;;;;;5093138;27;44542;-74
2023/06/05 04:06:16;;;;;;;5.47;3.80;;;22.30;62.40;;;;;;5087549;28;43473;-73
2023/06/05 04:08:46;;;;;;;5.97;3.57;;;22.40;62.50;;;;;;5089641;27;43371;-73
2023/06/05 04:11:15;;;;;;;6.83;3.70;;;22.40;62.40;;;;;;5088871;27;43773;-72
2023/06/05 04:13:43;;;;;;;6.77;3.67;;;22.30;62.60;;;;;;5085935;27;44024;-73
2023/06/05 04:16:11;;;;;;;5.47;3.60;;;22.30;62.80;;;;;;5081402;27;43573;-72
2023/06/05 04:18:39;;;;;;;5.90;3.77;;;22.20;63.20;;;;;;5092454;27;43528;-73
2023/06/05 04:21:07;;;;;;;7.37;3.80;;;22.20;63.10;;;;;;5081621;28;45873;-73
2023/06/05 04:23:36;;;;;;;5.03;3.43;;;22.20;63.20;;;;;;5087239;28;43312;-73
2023/06/05 04:26:06;;;;;;;7.33;3.43;;;22.10;62.80;;;;;;5088205;28;43328;-73
2023/06/05 04:28:34;;;;;;;7.53;4.20;;;22.10;63.20;;;;;;5086411;28;43696;-73
2023/06/05 04:31:03;;;;;;;7.13;4.47;;;22.10;63.40;;;;;;5087799;28;43964;-74
2023/06/05 04:33:31;;;;;;;6.90;4.10;;;22.10;63.40;;;;;;5088140;28;44691;-72
2023/06/05 04:35:59;;;;;;;7.37;4.40;;;22.10;63.40;;;;;;5082478;27;43455;-73
2023/06/05 04:38:28;;;;;;;8.10;4.60;;;22.00;62.90;;;;;;5078451;28;43458;-73
2023/06/05 04:40:57;;;;;;;6.67;4.30;;;22.00;63.30;;;;;;5082690;28;45990;-73
2023/06/05 04:43:26;;;;;;;6.87;4.27;;;22.00;63.40;;;;;;5081882;27;43566;-73
2023/06/05 04:45:54;;;;;;;7.57;4.53;;;22.10;63.20;;;;;;5087988;28;43358;-73
2023/06/05 04:48:22;;;;;;;4.90;3.63;;;22.20;62.70;;;;;;5087452;28;44411;-74
2023/06/05 04:50:53;;;;;;;7.83;4.30;;;22.30;62.40;;;;;;5089180;27;43980;-73
2023/06/05 04:53:21;;;;;;;8.70;4.17;;;22.40;62.60;;;;;;5087526;27;43462;-73
2023/06/05 04:55:49;;;;;;;6.40;3.93;;;22.40;62.40;;;;;;5087702;28;43430;-73
2023/06/05 04:58:19;;;;;;;6.93;4.10;;;22.30;62.60;;;;;;5088253;28;43414;-73
2023/06/05 05:00:51;;;;;;;6.40;4.30;;;22.20;62.70;;;;;;5087568;28;45851;-73
2023/06/05 05:03:21;;;;;;;7.23;4.00;;;22.20;63.20;;;;;;5090348;27;43427;-74
2023/06/05 05:05:49;;;;;;;5.20;3.70;;;22.20;63.20;;;;;;5088624;27;43366;-74
2023/06/05 05:08:20;;;;;;;4.60;3.90;;;22.20;63.20;;;;;;5092871;27;43888;-73
2023/06/05 05:10:48;;;;;;;6.60;4.30;;;22.10;62.80;;;;;;5087657;27;45329;-74
2023/06/05 05:13:16;;;;;;;5.93;3.70;;;22.10;63.50;;;;;;5085746;28;45029;-74
2023/06/05 05:15:45;;;;;;;3.53;3.23;;;22.10;63.60;;;;;;5086138;28;43999;-73
2023/06/05 05:18:14;;;;;;;3.97;3.33;;;22.10;63.60;;;;;;5087093;28;43457;-74
2023/06/05 05:20:42;;;;;;;4.00;3.60;;;22.00;63.20;;;;;;5084210;28;43735;-74
2023/06/05 05:23:10;;;;;;;4.83;3.63;;;22.00;63.10;;;;;;5087460;28;43478;-73
2023/06/05 05:25:39;;;;;;;5.03;3.50;;;22.00;63.70;;;;;;5086526;28;43461;-74
2023/06/05 05:28:08;;;;;;;4.63;3.80;;;22.00;63.80;;;;;;5080960;28;43446;-74
2023/06/05 05:30:37;;;;;;;5.40;3.73;;;22.10;63.50;;;;;;5088120;27;44073;-73
2023/06/05 05:33:06;;;;;;;5.07;3.50;;;22.30;63.20;;;;;;5087015;28;44826;-73
2023/06/05 05:35:35;;;;;;;3.77;3.47;;;22.30;62.90;;;;;;5086965;28;43433;-74
2023/06/05 05:38:03;;;;;;;4.53;3.20;;;22.30;62.90;;;;;;5087609;28;43915;-73
2023/06/05 05:40:31;;;;;;;4.40;3.63;;;22.30;63.00;;;;;;5088216;27;43968;-73
2023/06/05 05:42:59;;;;;;;4.87;3.73;;;22.20;62.70;;;;;;5086999;28;44425;-74
2023/06/05 05:45:27;;;;;;;3.67;3.40;;;22.20;63.40;;;;;;5088726;27;43404;-74
2023/06/05 05:47:55;;;;;;;3.63;3.17;;;22.20;63.50;;;;;;5088955;27;43470;-73
2023/06/05 05:50:24;;;;;;;3.50;3.20;;;22.10;63.40;;;;;;5086593;28;45657;-74
2023/06/05 05:52:53;;;;;;;3.43;3.23;;;22.10;63.20;;;;;;5088485;28;43451;-74
2023/06/05 05:55:21;;;;;;;3.83;3.37;;;22.10;63.60;;;;;;5087008;28;43387;-73
2023/06/05 05:57:49;;;;;;;3.70;2.97;;;22.10;63.90;;;;;;5088435;27;43425;-73
2023/06/05 06:00:18;;;;;;;3.37;3.10;;;22.10;64.50;;;;;;5088331;27;43878;-74
2023/06/05 06:02:47;;;;;;;3.03;2.83;;;22.20;63.80;;;;;;5087832;27;43409;-73
2023/06/05 06:05:15;;;;;;;3.67;3.00;;;22.20;63.60;;;;;;5087265;27;43397;-73
2023/06/05 06:07:43;;;;;;;3.50;3.13;;;22.10;63.50;;;;;;5086851;28;44014;-74
2023/06/05 06:10:13;;;;;;;3.00;2.80;;;22.10;63.70;;;;;;5087739;27;44081;-74
2023/06/05 06:12:42;;;;;;;2.93;2.73;;;22.10;63.70;;;;;;5088074;27;43546;-74
2023/06/05 06:15:11;;;;;;;3.43;3.13;;;22.10;63.70;;;;;;5088196;27;43493;-73
2023/06/05 06:17:39;;;;;;;3.13;2.87;;;22.10;63.20;;;;;;5088203;27;43419;-72
2023/06/05 06:20:11;;;;;;;2.90;2.70;;;22.10;63.50;;;;;;5085482;28;45061;-74
2023/06/05 06:22:39;;;;;;;4.70;2.90;;;22.00;63.80;;;;;;5084870;28;43360;-73
2023/06/05 06:25:10;;;;;;;2.93;2.83;;;22.10;63.80;;;;;;5087328;28;43874;-73
2023/06/05 06:27:39;;;;;;;2.70;2.50;;;22.20;63.70;;;;;;5087037;27;43823;-73
2023/06/05 06:30:08;;;;;;;3.37;3.00;;;22.20;63.60;;;;;;5087550;28;43749;-73
2023/06/05 06:32:36;;;;;;;3.23;2.83;;;22.20;63.50;;;;;;5087603;27;43353;-73
2023/06/05 06:35:06;;;;;;;2.90;2.70;;;22.20;63.70;;;;;;5088035;27;43372;-73
2023/06/05 06:37:34;;;;;;;3.13;2.87;;;22.20;63.80;;;;;;5084753;27;43536;-73
2023/06/05 06:40:02;;;;;;;3.10;2.80;;;22.20;63.80;;;;;;5091515;27;43622;-73
2023/06/05 06:42:31;;;;;;;3.07;2.87;;;22.10;63.40;;;;;;5093123;27;45567;-73
2023/06/05 06:45:11;;;;;;;2.43;2.33;;;22.10;63.10;;;;;;5089836;28;43425;-74
2023/06/05 06:47:40;;;;;;;2.50;2.40;;;22.10;63.20;;;;;;5091656;27;43343;-72
2023/06/05 06:50:10;;;;;;;3.00;2.80;;;22.00;63.20;;;;;;5091012;28;43957;-72
2023/06/05 06:52:39;;;;;;;2.77;2.57;;;22.00;63.40;;;;;;5091019;28;43387;-72
2023/06/05 06:55:07;;;;;;;2.83;2.63;;;22.00;63.50;;;;;;5090404;28;43496;-73
2023/06/05 06:57:35;;;;;;;2.50;2.40;;;22.00;63.50;;;;;;5089695;28;43897;-72
2023/06/05 07:00:09;;;;;;;2.77;2.57;;;21.90;63.60;;;;;;5094348;27;43865;-72
2023/06/05 07:02:43;;;;;;;2.80;2.53;;;21.90;64.30;;;;;;5089690;27;44200;-73
2023/06/05 07:05:11;;;;;;;2.80;2.60;;;22.00;64.20;;;;;;5085106;28;43384;-73
2023/06/05 07:07:39;;;;;;;2.70;2.60;;;22.20;63.90;;;;;;5087870;27;43870;-74
2023/06/05 07:10:08;;;;;;;2.53;2.43;;;22.30;63.10;;;;;;5093035;27;43594;-74
2023/06/05 07:12:36;;;;;;;2.60;2.40;;;22.60;62.60;;;;;;5088954;28;44984;-74
2023/06/05 07:15:05;;;;;;;2.43;2.33;;;22.80;61.90;;;;;;5090465;27;43340;-74
2023/06/05 07:17:33;;;;;;;2.30;2.20;;;23.00;61.40;;;;;;5090867;27;43415;-74
2023/06/05 07:20:04;;;;;;;2.70;2.50;;;23.20;61.60;;;;;;5090538;27;43966;-72
2023/06/05 07:22:32;;;;;;;2.53;2.43;;;23.30;60.30;;;;;;5088671;28;43873;-73
2023/06/05 07:25:01;;;;;;;2.10;2.00;;;23.40;60.00;;;;;;5089291;28;43469;-73
2023/06/05 07:27:29;;;;;;;2.43;2.33;;;23.50;59.70;;;;;;5090420;28;43945;-74
2023/06/05 07:29:57;;;;;;;2.07;1.97;;;23.60;59.50;;;;;;5085046;28;43742;-73
2023/06/05 07:32:25;;;;;;;2.73;2.53;;;23.50;59.50;;;;;;5090181;27;43494;-74
2023/06/05 07:34:53;;;;;;;2.10;2.00;;;23.40;60.00;;;;;;5084911;28;43404;-74
2023/06/05 07:37:23;;;;;;;2.30;2.20;;;23.20;60.60;;;;;;5087894;28;43620;-74
2023/06/05 07:39:52;;;;;;;2.10;2.10;;;23.10;60.90;;;;;;5089339;27;43601;-73
2023/06/05 07:42:20;;;;;;;2.20;2.20;;;23.00;61.40;;;;;;5089604;28;43420;-73
2023/06/05 07:44:48;;;;;;;2.47;2.37;;;22.90;61.50;;;;;;5088224;27;44110;-73
2023/06/05 07:47:16;;;;;;;2.10;2.00;;;22.70;62.00;;;;;;5089928;27;43415;-74
2023/06/05 07:49:44;;;;;;;2.40;2.30;;;22.70;62.40;;;;;;5087242;27;43660;-73
2023/06/05 07:52:12;;;;;;;2.40;2.30;;;22.60;62.50;;;;;;5087699;28;43398;-73
2023/06/05 07:54:41;;;;;;;2.33;2.23;;;22.50;62.50;;;;;;5089659;27;43432;-73
2023/06/05 07:57:10;;;;;;;2.17;2.07;;;22.50;62.50;;;;;;5089086;27;43576;-74
2023/06/05 07:59:39;;;;;;;2.20;2.10;;;22.40;63.30;;;;;;5088084;27;45714;-75
2023/06/05 08:02:07;;;;;;;2.53;2.33;;;22.40;63.30;;;;;;5088767;27;43477;-74
2023/06/05 08:04:35;;;;;;;2.00;2.00;;;22.50;63.00;;;;;;5087024;28;43405;-74
2023/06/05 08:07:04;;;;;;;2.00;2.00;;;22.60;62.50;;;;;;5089659;27;43430;-72
2023/06/05 08:09:33;;;;;;;2.17;2.10;;;22.70;62.40;;;;;;5087594;27;43607;-73
2023/06/05 08:12:03;;;;;;;1.97;1.97;;;22.70;62.50;;;;;;5087492;28;44381;-74
2023/06/05 08:14:31;;;;;;;2.00;1.90;;;22.60;62.50;;;;;;5089413;27;43829;-74
2023/06/05 08:16:59;;;;;;;1.97;1.90;;;22.50;62.30;;;;;;5087914;28;43441;-74
2023/06/05 08:19:27;;;;;;;2.17;2.07;;;22.40;63.10;;;;;;5086619;28;45752;-74
2023/06/05 08:21:56;;;;;;;1.70;1.70;;;22.40;63.30;;;;;;5089111;27;43972;-74
2023/06/05 08:24:26;;;;;;;1.90;1.90;;;22.30;63.30;;;;;;5086438;28;43394;-74
2023/06/05 08:26:54;;;;;;;1.90;1.80;;;22.30;62.90;;;;;;5089162;27;43536;-74
2023/06/05 08:29:24;;;;;;;1.80;1.80;;;22.20;63.40;;;;;;5087453;28;46063;-74
2023/06/05 08:31:52;;;;;;;1.80;1.80;;;22.20;63.80;;;;;;5087815;28;44923;-74
2023/06/05 08:34:20;;;;;;;2.20;2.10;;;22.20;63.70;;;;;;5088948;27;44034;-73
2023/06/05 08:36:48;;;;;;;1.70;1.70;;;22.30;63.60;;;;;;5089546;27;43465;-74
2023/06/05 08:39:16;;;;;;;2.10;2.00;;;22.30;63.50;;;;;;5088559;28;43817;-72
2023/06/05 08:41:44;;;;;;;1.80;1.80;;;22.30;63.30;;;;;;5086884;27;44442;-73
2023/06/05 08:44:13;;;;;;;1.80;1.80;;;22.30;63.70;;;;;;5089076;28;43404;-73
2023/06/05 08:46:42;;;;;;;2.10;2.00;;;22.30;63.80;;;;;;5090710;27;43405;-73
2023/06/05 08:49:12;;;;;;;1.90;1.90;;;22.20;63.70;;;;;;5091213;27;43586;-73
2023/06/05 08:51:40;;;;;;;2.10;2.00;;;22.20;63.40;;;;;;5088673;27;44142;-73
2023/06/05 08:54:12;;;;;;;1.73;1.73;;;22.20;63.20;;;;;;5094258;27;43457;-73
2023/06/05 08:56:41;;;;;;;1.87;1.77;;;22.10;64.10;;;;;;5088013;28;43550;-73
2023/06/05 08:59:09;;;;;;;1.83;1.73;;;22.20;64.10;;;;;;5088748;28;43981;-73
2023/06/05 09:01:38;;;;;;;1.90;1.90;;;22.20;63.70;;;;;;5089823;27;44650;-73
2023/06/05 09:04:07;;;;;;;1.60;1.60;;;22.30;63.30;;;;;;5088519;27;43406;-73
2023/06/05 09:06:36;;;;;;;1.90;1.80;;;22.40;63.40;;;;;;5087851;28;43537;-73
2023/06/05 09:09:04;;;;;;;1.83;1.83;;;22.40;63.30;;;;;;5087053;28;45662;-72
2023/06/05 09:11:32;;;;;;;1.60;1.60;;;22.30;63.00;;;;;;5089010;27;43357;-73
2023/06/05 09:14:01;;;;;;;1.90;1.90;;;22.30;62.90;;;;;;5087368;28;43497;-72
2023/06/05 09:16:37;;;;;;;1.60;1.60;;;22.20;63.80;;;;;;5088178;28;43454;-74
2023/06/05 09:19:07;;;;;;;1.80;1.80;;;22.20;63.90;;;;;;5082281;28;43591;-73
2023/06/05 09:21:35;;;;;;;1.70;1.70;;;22.20;63.80;;;;;;5088776;28;43899;-72
2023/06/05 09:24:12;;;;;;;1.80;1.80;;;22.10;63.30;;;;;;5085931;28;43585;-73
2023/06/05 09:26:56;;;;;;;1.70;1.70;;;22.10;64.00;;;;;;5087575;28;43513;-73
2023/06/05 09:29:25;;;;;;;1.80;1.80;;;22.10;64.30;;;;;;5088139;27;45767;-72
2023/06/05 09:31:55;;;;;;;1.40;1.40;;;22.10;64.20;;;;;;5088418;27;43429;-73
2023/06/05 09:34:26;;;;;;;1.50;1.50;;;22.00;63.60;;;;;;5088696;27;43430;-72
2023/06/05 09:36:57;;;;;;;1.67;1.67;;;22.00;63.50;;;;;;5087198;28;43403;-74
2023/06/05 09:39:26;;;;;;;1.47;1.47;;;22.00;64.40;;;;;;5086712;28;43949;-73
2023/06/05 09:41:54;;;;;;;1.70;1.70;;;22.00;64.50;;;;;;5087959;27;43369;-74
2023/06/05 09:44:22;;;;;;;1.83;1.83;;;22.10;64.30;;;;;;5083143;27;44006;-74
2023/06/05 09:46:57;;;;;;;1.47;1.47;;;22.20;63.90;;;;;;5088920;28;43983;-73
2023/06/05 09:49:30;;;;;;;1.53;1.53;;;22.30;63.60;;;;;;5087403;27;44026;-74
2023/06/05 09:51:58;;;;;;;1.60;1.60;;;22.40;63.50;;;;;;5095774;27;44714;-73
2023/06/05 09:54:27;;;;;;;1.50;1.50;;;22.40;63.50;;;;;;5082449;28;43338;-72
2023/06/05 09:56:58;;;;;;;1.60;1.60;;;22.30;63.20;;;;;;5088948;27;43534;-73
2023/06/05 09:59:29;;;;;;;1.70;1.70;;;22.20;63.30;;;;;;5086434;28;45508;-73
2023/06/05 10:02:01;;;;;;;1.60;1.60;;;22.20;64.10;;;;;;5083027;28;43380;-73
2023/06/05 10:04:30;;;;;;;1.50;1.50;;;22.10;64.00;;;;;;5086517;28;43372;-75
2023/06/05 10:07:00;;;;;;;1.43;1.43;;;22.10;63.60;;;;;;5088713;27;43466;-74
2023/06/05 10:09:29;;;;;;;1.90;1.90;;;22.10;63.40;;;;;;5083123;28;44114;-74
2023/06/05 10:11:57;;;;;;;1.67;1.67;;;22.00;64.30;;;;;;5086823;27;43438;-73
2023/06/05 10:14:27;;;;;;;1.40;1.40;;;22.00;64.40;;;;;;5087665;27;43426;-74
2023/06/05 10:16:56;;;;;;;1.33;1.33;;;22.00;64.00;;;;;;5088412;27;43416;-73
2023/06/05 10:19:24;;;;;;;1.40;1.40;;;22.00;63.70;;;;;;5087093;27;43954;-74
2023/06/05 10:21:54;;;;;;;1.60;1.60;;;22.00;63.80;;;;;;5085290;28;44571;-74
2023/06/05 10:24:23;;;;;;;1.30;1.30;;;22.00;64.70;;;;;;5084483;28;43501;-73
2023/06/05 10:27:42;;;;;;;1.50;1.50;;;22.00;64.60;;;;;;5087986;28;43430;-74
2023/06/05 10:30:44;;;;;;;1.30;1.30;;;22.00;64.00;;;;;;5069346;27;43615;-73
2023/06/05 10:33:22;;;;;;;1.40;1.40;;;22.00;63.90;;;;;;5081005;28;44813;-73
2023/06/05 10:35:54;;;;;;;1.50;1.50;;;21.90;64.70;;;;;;5086230;28;43412;-74
2023/06/05 10:38:25;;;;;;;1.37;1.37;;;22.00;64.70;;;;;;5088128;28;43372;-74
2023/06/05 10:40:54;;;;;;;1.50;1.50;;;22.00;64.50;;;;;;5085555;28;44971;-74
2023/06/05 10:43:26;;;;;;;1.33;1.33;;;22.20;64.10;;;;;;5087358;27;43321;-74
2023/06/05 10:45:54;;;;;;;1.40;1.40;;;22.30;63.90;;;;;;5086686;27;43427;-74
2023/06/05 10:49:17;;;;;;;1.30;1.30;;;22.30;63.70;;;;;;5087897;27;43467;-74
2023/06/05 10:51:45;;;;;;;1.50;1.50;;;22.30;63.40;;;;;;5084427;28;45865;-74
2023/06/05 10:54:16;;;;;;;1.33;1.33;;;22.20;63.20;;;;;;5087207;27;43442;-74
2023/06/05 10:56:56;;;;;;;1.33;1.33;;;22.10;64.10;;;;;;5085921;27;43409;-73
2023/06/05 10:59:24;;;;;;;1.50;1.50;;;22.10;64.20;;;;;;5082877;28;43426;-73
2023/06/05 11:02:22;;;;;;;1.40;1.40;;;22.10;63.70;;;;;;5085835;28;46351;-73
2023/06/05 11:05:12;;;;;;;1.53;1.53;;;22.10;63.60;;;;;;5087236;27;43848;-73
2023/06/05 11:07:42;;;;;;;1.50;1.50;;;22.10;64.50;;;;;;5082147;28;43457;-73
2023/06/05 11:10:20;;;;;;;1.30;1.30;;;22.00;64.60;;;;;;5082066;28;44042;-73
2023/06/05 11:12:56;;;;;;;1.43;1.43;;;22.10;64.50;;;;;;5086540;28;43982;-74
2023/06/05 11:15:47;;;;;;;1.30;1.30;;;22.10;64.30;;;;;;5085041;28;44703;-73
2023/06/05 11:18:31;;;;;;;1.40;1.40;;;22.10;63.70;;;;;;5075618;28;43578;-73
2023/06/05 11:21:00;;;;;;;1.37;1.37;;;22.10;64.40;;;;;;5079242;28;43377;-74
2023/06/05 11:23:29;;;;;;;1.60;1.60;;;22.10;64.40;;;;;;5080641;27;45699;-73
2023/06/05 11:26:17;;;;;;;1.60;1.60;;;22.10;64.00;;;;;;5081806;28;43427;-74
2023/06/05 11:28:46;;;;;;;1.40;1.40;;;22.00;63.50;;;;;;5087381;28;43498;-74
2023/06/05 11:31:14;;;;;;;1.37;1.37;;;22.00;63.60;;;;;;5089710;28;43559;-74
2023/06/05 11:33:42;;;;;;;1.30;1.30;;;22.00;64.50;;;;;;5087252;28;45996;-73
2023/06/05 11:36:12;;;;;;;1.30;1.30;;;22.00;64.30;;;;;;5088603;28;45101;-74
2023/06/05 11:38:40;;;;;;;1.23;1.23;;;22.00;63.80;;;;;;5082822;28;43465;-74
2023/06/05 11:41:10;;;;;;;1.23;1.23;;;22.00;63.70;;;;;;5086353;27;43505;-73
2023/06/05 11:43:44;;;;;;;1.57;1.57;;;21.90;64.70;;;;;;5089665;27;43598;-74
2023/06/05 11:46:12;;;;;;;1.30;1.30;;;21.90;64.60;;;;;;5089055;27;44740;-73
2023/06/05 11:48:44;;;;;;;1.40;1.40;;;22.00;64.50;;;;;;5085838;28;43424;-73
2023/06/05 11:51:12;;;;;;;1.47;1.47;;;22.10;64.20;;;;;;5100624;27;43387;-74
2023/06/05 11:53:45;;;;;;;1.40;1.40;;;22.20;63.90;;;;;;5088514;28;46041;-73
2023/06/05 11:56:16;;;;;;;1.27;1.27;;;22.30;63.80;;;;;;5087956;27;43533;-74
2023/06/05 11:58:45;;;;;;;1.20;1.20;;;22.30;63.50;;;;;;5088202;28;43427;-74
2023/06/05 12:01:17;;;;;;;1.30;1.30;;;22.20;63.00;;;;;;5083199;28;43465;-73
2023/06/05 12:03:46;;;;;;;1.30;1.30;;;22.20;63.20;;;;;;5082464;28;43692;-73
2023/06/05 12:06:15;;;;;;;1.30;1.30;;;22.10;64.10;;;;;;5080266;28;43444;-74
2023/06/05 12:08:44;;;;;;;1.50;1.40;;;22.10;63.80;;;;;;5080683;28;43450;-73
2023/06/05 12:11:25;;;;;;;1.20;1.20;;;22.10;63.30;;;;;;5081324;28;43624;-73
2023/06/05 12:13:53;;;;;;;1.50;1.50;;;22.00;63.40;;;;;;5081933;28;43613;-73
2023/06/05 12:16:32;;;;;;;1.23;1.23;;;22.00;64.30;;;;;;5083993;27;43418;-74
2023/06/05 12:19:01;;;;;;;1.13;1.10;;;22.10;64.30;;;;;;5080676;28;43439;-73
2023/06/05 12:21:43;;;;;;;1.30;1.30;;;22.00;63.70;;;;;;5081403;28;43292;-74
2023/06/05 12:24:11;;;;;;;1.40;1.40;;;22.00;63.70;;;;;;5082672;27;43547;-74
2023/06/05 12:26:54;;;;;;;1.30;1.30;;;22.00;64.10;;;;;;5079453;28;44641;-74
2023/06/05 12:29:23;;;;;;;1.20;1.20;;;22.00;64.70;;;;;;5085093;28;43430;-72
2023/06/05 12:31:51;;;;;;;1.30;1.30;;;22.00;64.50;;;;;;5089785;27;43539;-74
2023/06/05 12:34:20;;;;;;;1.23;1.23;;;22.10;64.30;;;;;;5086353;28;43761;-75
2023/06/05 12:36:48;;;;;;;1.37;1.37;;;22.20;64.00;;;;;;5078916;28;43566;-74
2023/06/05 12:39:18;;;;;;;1.40;1.40;;;22.30;63.90;;;;;;5081453;27;43495;-74
2023/06/05 12:41:46;;;;;;;1.20;1.20;;;22.30;63.30;;;;;;5080483;28;43426;-73
2023/06/05 12:44:16;;;;;;;1.30;1.30;;;22.20;62.90;;;;;;5081321;28;43759;-74
2023/06/05 12:46:44;;;;;;;1.40;1.40;;;22.20;63.10;;;;;;5082514;28;43384;-74
2023/06/05 12:49:12;;;;;;;1.63;1.60;;;22.10;64.10;;;;;;5076413;28;43831;-74
2023/06/05 12:51:40;;;;;;;1.40;1.40;;;22.10;63.70;;;;;;5080908;27;44080;-73
2023/06/05 12:54:08;;;;;;;1.13;1.13;;;22.10;63.40;;;;;;5081001;28;43950;-73
2023/06/05 12:56:36;;;;;;;1.37;1.37;;;22.00;63.40;;;;;;5083796;28;43472;-73
2023/06/05 12:59:04;;;;;;;1.30;1.30;;;22.00;64.10;;;;;;5080178;27;43506;-74
2023/06/05 13:01:36;;;;;;;1.50;1.50;;;22.00;64.10;;;;;;5083149;27;43811;-72
2023/06/05 13:04:04;;;;;;;1.30;1.30;;;22.00;63.70;;;;;;5082111;28;45305;-73